KLM36A KMCO-EHAM
Flight info
| Callsign | KLM36A |
|---|---|
| Flight time | N/A |
| Altitude | 37000 |
| Route | JEEMY4 PAINN SHRKS BERTT GURGE RAYVO Q87 NOWAE FAK BOOYA Q34 RBV Q22 LLUND BIZEX Q133 CAM BEEHS JIGZY HULTN N611A SAXAN 5250N 5340N 5330N 5320N MALOT GISTI ENJEX ADHAV AXNEF ZIPWE OZZIL SAWPE L179 ICTAM M197 REDFA |
| Aircraft | B772/H-SDE2E3FGHIJ5LORVWXY/LB1D1 |
Departure
| Time | 2026-04-25 12:48 |
|---|---|
| Airport | Orlando International Airport (KMCO) |
Arrival
| Time | N/A |
|---|---|
| Airport | Amsterdam Airport Schiphol (EHAM) |
| Time | Latitude | Longitude | Altitude | Speed | Heading |
|---|---|---|---|---|---|
| 2026-04-25 10:37 | 28.42576 | -81.31452 | 106 ft | 0 kts | 323° |
| 2026-04-25 10:39 | 28.42583 | -81.31458 | 106 ft | 0 kts | 323° |
| 2026-04-25 11:49 | 28.42572 | -81.31448 | 106 ft | 4 kts | 321° |
| 2026-04-25 11:49 | 28.42552 | -81.31428 | 106 ft | 4 kts | 311° |
| 2026-04-25 11:49 | 28.42537 | -81.31403 | 106 ft | 4 kts | 282° |
| 2026-04-25 11:50 | 28.42536 | -81.31388 | 106 ft | 0 kts | 258° |
| 2026-04-25 11:56 | 28.42528 | -81.31439 | 106 ft | 12 kts | 259° |
| 2026-04-25 11:56 | 28.42503 | -81.31553 | 106 ft | 19 kts | 248° |
| 2026-04-25 11:56 | 28.42486 | -81.31589 | 106 ft | 3 kts | 235° |
| 2026-04-25 11:57 | 28.42468 | -81.31613 | 107 ft | 0 kts | 226° |
| 2026-04-25 11:57 | 28.42426 | -81.31647 | 108 ft | 0 kts | 213° |
| 2026-04-25 11:57 | 28.42364 | -81.31706 | 109 ft | 18 kts | 237° |
| 2026-04-25 11:57 | 28.42353 | -81.31790 | 111 ft | 6 kts | 287° |
| 2026-04-25 11:58 | 28.42416 | -81.31830 | 111 ft | 14 kts | 354° |
| 2026-04-25 11:58 | 28.42499 | -81.31832 | 111 ft | 11 kts | 358° |
| 2026-04-25 11:58 | 28.42577 | -81.31833 | 111 ft | 11 kts | 359° |
| 2026-04-25 11:58 | 28.42633 | -81.31833 | 112 ft | 0 kts | 359° |
| 2026-04-25 11:59 | 28.42652 | -81.31834 | 111 ft | 13 kts | 359° |
| 2026-04-25 11:59 | 28.42793 | -81.31836 | 109 ft | 21 kts | 359° |
| 2026-04-25 12:00 | 28.43043 | -81.31838 | 107 ft | 9 kts | 0° |
| 2026-04-25 12:00 | 28.43094 | -81.31839 | 107 ft | 7 kts | 359° |
| 2026-04-25 12:00 | 28.43101 | -81.31839 | 107 ft | 0 kts | 359° |
| 2026-04-25 12:01 | 28.43106 | -81.31839 | 107 ft | 0 kts | 359° |
| 2026-04-25 12:27 | 28.43117 | -81.31839 | 107 ft | 5 kts | 358° |
| 2026-04-25 12:28 | 28.43171 | -81.31842 | 106 ft | 11 kts | 357° |
| 2026-04-25 12:28 | 28.43270 | -81.31843 | 105 ft | 18 kts | 0° |
| 2026-04-25 12:28 | 28.43408 | -81.31842 | 106 ft | 21 kts | 359° |
| 2026-04-25 12:28 | 28.43544 | -81.31844 | 109 ft | 14 kts | 359° |
| 2026-04-25 12:29 | 28.43608 | -81.31845 | 110 ft | 8 kts | 359° |
| 2026-04-25 12:29 | 28.43664 | -81.31845 | 110 ft | 7 kts | 359° |
| 2026-04-25 12:29 | 28.43706 | -81.31846 | 110 ft | 5 kts | 359° |
| 2026-04-25 12:29 | 28.43735 | -81.31846 | 110 ft | 3 kts | 359° |
| 2026-04-25 12:30 | 28.43781 | -81.31847 | 110 ft | 9 kts | 359° |
| 2026-04-25 12:30 | 28.43848 | -81.31848 | 111 ft | 9 kts | 358° |
| 2026-04-25 12:30 | 28.43904 | -81.31860 | 113 ft | 9 kts | 333° |
| 2026-04-25 12:30 | 28.43949 | -81.31923 | 115 ft | 11 kts | 301° |
| 2026-04-25 12:31 | 28.43985 | -81.31983 | 115 ft | 7 kts | 323° |
| 2026-04-25 12:31 | 28.44027 | -81.31998 | 115 ft | 6 kts | 351° |
| 2026-04-25 12:31 | 28.44063 | -81.32001 | 115 ft | 5 kts | 355° |
| 2026-04-25 12:31 | 28.44112 | -81.32005 | 114 ft | 9 kts | 356° |
| 2026-04-25 12:32 | 28.44176 | -81.32007 | 113 ft | 9 kts | 359° |
| 2026-04-25 12:32 | 28.44240 | -81.32008 | 113 ft | 9 kts | 360° |
| 2026-04-25 12:32 | 28.44304 | -81.32008 | 112 ft | 9 kts | 360° |
| 2026-04-25 12:32 | 28.44367 | -81.32008 | 111 ft | 9 kts | 360° |
| 2026-04-25 12:33 | 28.44450 | -81.32009 | 109 ft | 15 kts | 359° |
| 2026-04-25 12:33 | 28.44559 | -81.32011 | 107 ft | 16 kts | 359° |
| 2026-04-25 12:33 | 28.44669 | -81.32012 | 106 ft | 14 kts | 359° |
| 2026-04-25 12:33 | 28.44718 | -81.32012 | 106 ft | 5 kts | 0° |
| 2026-04-25 12:34 | 28.44743 | -81.32012 | 106 ft | 3 kts | 359° |
| 2026-04-25 12:34 | 28.44748 | -81.32012 | 106 ft | 0 kts | 359° |
| 2026-04-25 12:37 | 28.44750 | -81.32012 | 106 ft | 0 kts | 359° |
| 2026-04-25 12:40 | 28.44777 | -81.32015 | 106 ft | 7 kts | 352° |
| 2026-04-25 12:41 | 28.44800 | -81.32021 | 106 ft | 2 kts | 337° |
| 2026-04-25 12:41 | 28.44811 | -81.32034 | 106 ft | 0 kts | 302° |
| 2026-04-25 12:44 | 28.44817 | -81.32049 | 105 ft | 7 kts | 292° |
| 2026-04-25 12:44 | 28.44824 | -81.32110 | 105 ft | 5 kts | 271° |
| 2026-04-25 12:44 | 28.44824 | -81.32115 | 105 ft | 0 kts | 271° |
| 2026-04-25 12:46 | 28.44824 | -81.32117 | 105 ft | 2 kts | 271° |
| 2026-04-25 12:46 | 28.44824 | -81.32164 | 105 ft | 8 kts | 270° |
| 2026-04-25 12:47 | 28.44814 | -81.32226 | 106 ft | 8 kts | 234° |
| 2026-04-25 12:47 | 28.44760 | -81.32233 | 106 ft | 8 kts | 173° |
| 2026-04-25 12:47 | 28.44735 | -81.32231 | 107 ft | 0 kts | 177° |
| 2026-04-25 12:47 | 28.44710 | -81.32230 | 107 ft | 23 kts | 178° |
| 2026-04-25 12:48 | 28.44228 | -81.32224 | 114 ft | 113 kts | 179° |
| 2026-04-25 12:48 | 28.43181 | -81.32223 | 184 ft | 180 kts | 181° |
| 2026-04-25 12:48 | 28.41913 | -81.32231 | 1093 ft | 185 kts | 180° |
| 2026-04-25 12:48 | 28.40647 | -81.32202 | 2328 ft | 182 kts | 178° |
| 2026-04-25 12:49 | 28.39316 | -81.32204 | 2709 ft | 204 kts | 190° |
| 2026-04-25 12:49 | 28.37980 | -81.32928 | 2855 ft | 226 kts | 225° |
| 2026-04-25 12:49 | 28.36758 | -81.34168 | 3042 ft | 248 kts | 208° |
| 2026-04-25 12:49 | 28.35069 | -81.34695 | 3590 ft | 256 kts | 185° |
| 2026-04-25 12:50 | 28.33303 | -81.35022 | 4127 ft | 261 kts | 203° |
| 2026-04-25 12:50 | 28.31849 | -81.36224 | 4903 ft | 262 kts | 231° |
| 2026-04-25 12:50 | 28.31015 | -81.38072 | 5558 ft | 270 kts | 257° |
| 2026-04-25 12:50 | 28.30786 | -81.40192 | 6262 ft | 272 kts | 264° |
| 2026-04-25 12:51 | 28.30634 | -81.42346 | 6857 ft | 277 kts | 271° |
| 2026-04-25 12:51 | 28.31077 | -81.44486 | 7004 ft | 284 kts | 297° |
| 2026-04-25 12:51 | 28.32280 | -81.46212 | 7021 ft | 284 kts | 317° |
| 2026-04-25 12:51 | 28.33807 | -81.47630 | 7007 ft | 283 kts | 322° |
| 2026-04-25 12:52 | 28.35352 | -81.48948 | 7009 ft | 282 kts | 323° |
| 2026-04-25 12:52 | 28.36926 | -81.50272 | 7009 ft | 282 kts | 323° |
| 2026-04-25 12:52 | 28.38506 | -81.51597 | 7017 ft | 282 kts | 323° |
| 2026-04-25 12:52 | 28.40091 | -81.52920 | 7499 ft | 285 kts | 323° |
| 2026-04-25 12:53 | 28.41700 | -81.54261 | 8187 ft | 289 kts | 323° |
| 2026-04-25 12:53 | 28.43342 | -81.55588 | 8894 ft | 288 kts | 329° |
| 2026-04-25 12:53 | 28.45237 | -81.56352 | 9507 ft | 292 kts | 350° |
| 2026-04-25 12:53 | 28.47250 | -81.56649 | 10037 ft | 300 kts | 353° |
| 2026-04-25 12:54 | 28.49368 | -81.56930 | 10390 ft | 316 kts | 353° |
| 2026-04-25 12:54 | 28.51620 | -81.57226 | 10549 ft | 336 kts | 353° |
| 2026-04-25 12:54 | 28.54020 | -81.57538 | 10711 ft | 357 kts | 353° |
| 2026-04-25 12:54 | 28.56531 | -81.57587 | 10781 ft | 371 kts | 10° |
| 2026-04-25 12:55 | 28.58943 | -81.56442 | 11120 ft | 384 kts | 35° |
| 2026-04-25 12:55 | 28.60342 | -81.55206 | 11305 ft | 386 kts | 39° |
| 2026-04-25 12:55 | 28.63330 | -81.52835 | 12032 ft | 395 kts | 25° |
| 2026-04-25 12:55 | 28.65898 | -81.51821 | 12822 ft | 389 kts | 15° |
| 2026-04-25 12:56 | 28.68505 | -81.50958 | 13484 ft | 388 kts | 20° |
| 2026-04-25 12:56 | 28.70813 | -81.49392 | 13971 ft | 392 kts | 44° |
| 2026-04-25 12:56 | 28.72480 | -81.47036 | 14645 ft | 381 kts | 49° |
| 2026-04-25 12:56 | 28.74538 | -81.45135 | 15177 ft | 387 kts | 26° |
| 2026-04-25 12:57 | 28.77134 | -81.44336 | 15655 ft | 391 kts | 2° |
| 2026-04-25 12:57 | 28.79884 | -81.44626 | 15823 ft | 403 kts | 348° |
| 2026-04-25 12:57 | 28.82654 | -81.45130 | 15888 ft | 405 kts | 358° |
| 2026-04-25 12:57 | 28.85471 | -81.44653 | 15963 ft | 419 kts | 20° |
| 2026-04-25 12:58 | 28.88122 | -81.43189 | 16012 ft | 427 kts | 28° |
| 2026-04-25 12:58 | 28.90733 | -81.41533 | 16284 ft | 430 kts | 31° |
| 2026-04-25 12:58 | 28.93252 | -81.39764 | 16639 ft | 423 kts | 26° |
| 2026-04-25 12:58 | 28.96092 | -81.38860 | 16776 ft | 431 kts | 3° |
| 2026-04-25 12:59 | 28.99075 | -81.39018 | 17026 ft | 431 kts | 353° |
| 2026-04-25 12:59 | 29.02061 | -81.39508 | 17331 ft | 435 kts | 349° |
| 2026-04-25 12:59 | 29.04996 | -81.40178 | 17726 ft | 437 kts | 347° |
| 2026-04-25 12:59 | 29.07934 | -81.41067 | 18108 ft | 438 kts | 341° |
| 2026-04-25 13:00 | 29.10766 | -81.42336 | 18385 ft | 434 kts | 337° |
| 2026-04-25 13:00 | 29.16716 | -81.43889 | 18654 ft | 445 kts | 354° |
| 2026-04-25 13:00 | 29.19809 | -81.44148 | 18975 ft | 447 kts | 356° |
| 2026-04-25 13:01 | 29.22922 | -81.44335 | 19293 ft | 448 kts | 356° |
| 2026-04-25 13:01 | 29.26038 | -81.44534 | 19566 ft | 450 kts | 356° |
| 2026-04-25 13:01 | 29.28981 | -81.44753 | 19792 ft | 452 kts | 355° |
| 2026-04-25 13:01 | 29.32126 | -81.45004 | 20020 ft | 454 kts | 355° |
| 2026-04-25 13:02 | 29.35281 | -81.45256 | 20246 ft | 455 kts | 355° |
| 2026-04-25 13:02 | 29.38093 | -81.45480 | 20446 ft | 457 kts | 355° |
| 2026-04-25 13:02 | 29.41171 | -81.45726 | 20665 ft | 457 kts | 355° |
| 2026-04-25 13:02 | 29.44346 | -81.45979 | 20892 ft | 458 kts | 355° |
| 2026-04-25 13:03 | 29.47531 | -81.46234 | 21115 ft | 459 kts | 355° |
| 2026-04-25 13:03 | 29.50722 | -81.46489 | 21340 ft | 460 kts | 355° |
| 2026-04-25 13:03 | 29.53913 | -81.46744 | 21562 ft | 460 kts | 355° |
| 2026-04-25 13:03 | 29.57108 | -81.47000 | 21785 ft | 461 kts | 355° |
| 2026-04-25 13:04 | 29.60310 | -81.47257 | 22010 ft | 461 kts | 355° |
| 2026-04-25 13:04 | 29.63506 | -81.47513 | 22232 ft | 461 kts | 355° |
| 2026-04-25 13:04 | 29.66709 | -81.47770 | 22456 ft | 461 kts | 355° |
| 2026-04-25 13:04 | 29.69868 | -81.48024 | 22677 ft | 461 kts | 355° |
| 2026-04-25 13:05 | 29.73070 | -81.48282 | 22897 ft | 461 kts | 355° |
| 2026-04-25 13:05 | 29.76266 | -81.48669 | 22960 ft | 464 kts | 351° |
| 2026-04-25 13:05 | 29.79473 | -81.49262 | 22994 ft | 469 kts | 351° |
| 2026-04-25 13:05 | 29.82719 | -81.49752 | 23024 ft | 473 kts | 354° |
| 2026-04-25 13:06 | 29.86012 | -81.50094 | 23053 ft | 477 kts | 355° |
| 2026-04-25 13:06 | 29.89319 | -81.50564 | 23086 ft | 481 kts | 349° |
| 2026-04-25 13:06 | 29.92564 | -81.51493 | 23209 ft | 482 kts | 341° |
| 2026-04-25 13:06 | 29.95652 | -81.52977 | 23430 ft | 480 kts | 333° |
| 2026-04-25 13:07 | 29.98647 | -81.54582 | 23456 ft | 475 kts | 340° |
| 2026-04-25 13:07 | 30.01824 | -81.55691 | 23494 ft | 479 kts | 345° |
| 2026-04-25 13:07 | 30.05036 | -81.56579 | 23523 ft | 483 kts | 346° |
| 2026-04-25 13:07 | 30.08308 | -81.57479 | 23594 ft | 485 kts | 346° |
| 2026-04-25 13:08 | 30.11580 | -81.58462 | 23719 ft | 486 kts | 344° |
| 2026-04-25 13:08 | 30.14831 | -81.59528 | 23869 ft | 486 kts | 343° |
| 2026-04-25 13:08 | 30.18075 | -81.60659 | 24010 ft | 487 kts | 342° |
| 2026-04-25 13:08 | 30.21308 | -81.61832 | 24154 ft | 487 kts | 342° |
| 2026-04-25 13:09 | 30.24536 | -81.63036 | 24301 ft | 488 kts | 342° |
| 2026-04-25 13:09 | 30.27780 | -81.64218 | 24353 ft | 490 kts | 342° |
| 2026-04-25 13:09 | 30.31045 | -81.65380 | 24433 ft | 492 kts | 342° |
| 2026-04-25 13:09 | 30.34320 | -81.66531 | 24576 ft | 492 kts | 343° |
| 2026-04-25 13:10 | 30.37594 | -81.67697 | 24680 ft | 493 kts | 342° |
| 2026-04-25 13:10 | 30.40821 | -81.68871 | 24789 ft | 493 kts | 342° |
| 2026-04-25 13:10 | 30.44093 | -81.70074 | 24922 ft | 493 kts | 342° |
| 2026-04-25 13:10 | 30.47362 | -81.71269 | 25075 ft | 493 kts | 342° |
| 2026-04-25 13:11 | 30.50641 | -81.72443 | 25231 ft | 493 kts | 342° |
| 2026-04-25 13:11 | 30.53927 | -81.73612 | 25257 ft | 495 kts | 342° |
| 2026-04-25 13:11 | 30.57224 | -81.74790 | 25274 ft | 497 kts | 343° |
| 2026-04-25 13:11 | 30.60603 | -81.75700 | 25294 ft | 500 kts | 351° |
| 2026-04-25 13:12 | 30.64070 | -81.76077 | 25377 ft | 501 kts | 358° |
| 2026-04-25 13:12 | 30.67552 | -81.75937 | 25523 ft | 500 kts | 5° |
| 2026-04-25 13:12 | 30.70928 | -81.75110 | 25560 ft | 499 kts | 20° |
| 2026-04-25 13:12 | 30.73020 | -81.74007 | 25590 ft | 500 kts | 28° |
| 2026-04-25 13:13 | 30.77126 | -81.71773 | 25553 ft | 487 kts | 13° |
| 2026-04-25 13:13 | 30.80510 | -81.71387 | 25309 ft | 494 kts | 354° |
| 2026-04-25 13:13 | 30.83830 | -81.72345 | 25354 ft | 495 kts | 335° |
| 2026-04-25 13:13 | 30.86806 | -81.74260 | 25576 ft | 481 kts | 332° |
| 2026-04-25 13:14 | 30.89931 | -81.75600 | 25600 ft | 482 kts | 350° |
| 2026-04-25 13:14 | 30.93275 | -81.75807 | 25628 ft | 481 kts | 3° |
| 2026-04-25 13:14 | 30.96495 | -81.75331 | 25571 ft | 481 kts | 11° |
| 2026-04-25 13:14 | 30.99777 | -81.74539 | 25510 ft | 485 kts | 11° |
| 2026-04-25 13:15 | 31.03075 | -81.73639 | 25506 ft | 489 kts | 15° |
| 2026-04-25 13:15 | 31.06308 | -81.72600 | 25507 ft | 489 kts | 15° |
| 2026-04-25 13:15 | 31.09469 | -81.71478 | 25506 ft | 492 kts | 18° |
| 2026-04-25 13:15 | 31.12682 | -81.70104 | 25510 ft | 492 kts | 21° |
| 2026-04-25 13:16 | 31.15912 | -81.68769 | 25506 ft | 494 kts | 17° |
| 2026-04-25 13:16 | 31.19210 | -81.67612 | 25512 ft | 495 kts | 16° |
| 2026-04-25 13:16 | 31.22209 | -81.66623 | 25514 ft | 497 kts | 15° |
| 2026-04-25 13:16 | 31.25546 | -81.65543 | 25514 ft | 499 kts | 15° |
| 2026-04-25 13:17 | 31.28790 | -81.64500 | 25538 ft | 501 kts | 15° |
| 2026-04-25 13:17 | 31.32159 | -81.63423 | 25508 ft | 503 kts | 15° |
| 2026-04-25 13:17 | 31.34402 | -81.62708 | 25508 ft | 505 kts | 15° |
| 2026-04-25 13:17 | 31.38622 | -81.61366 | 25509 ft | 507 kts | 15° |
| 2026-04-25 13:18 | 31.41984 | -81.60303 | 25509 ft | 509 kts | 15° |
| 2026-04-25 13:18 | 31.45398 | -81.59205 | 25643 ft | 507 kts | 15° |
| 2026-04-25 13:18 | 31.48770 | -81.58070 | 25992 ft | 501 kts | 16° |
| 2026-04-25 13:18 | 31.52096 | -81.56901 | 26277 ft | 497 kts | 17° |
| 2026-04-25 13:19 | 31.55385 | -81.55710 | 26564 ft | 493 kts | 17° |
| 2026-04-25 13:19 | 31.58647 | -81.54510 | 26851 ft | 489 kts | 17° |
| 2026-04-25 13:19 | 31.61876 | -81.53315 | 27138 ft | 485 kts | 17° |
| 2026-04-25 13:19 | 31.62917 | -81.52930 | 27231 ft | 484 kts | 17° |
| 2026-04-25 13:20 | 31.68262 | -81.50953 | 27713 ft | 477 kts | 17° |
| 2026-04-25 13:20 | 31.71430 | -81.49784 | 27800 ft | 479 kts | 17° |
| 2026-04-25 13:20 | 31.74614 | -81.48610 | 27818 ft | 481 kts | 17° |
| 2026-04-25 13:20 | 31.77775 | -81.47445 | 27834 ft | 484 kts | 17° |
| 2026-04-25 13:21 | 31.79946 | -81.46644 | 27846 ft | 485 kts | 17° |
| 2026-04-25 13:21 | 31.83854 | -81.45204 | 27866 ft | 488 kts | 17° |
| 2026-04-25 13:21 | 31.87100 | -81.44005 | 27881 ft | 490 kts | 17° |
| 2026-04-25 13:21 | 31.90361 | -81.42800 | 27896 ft | 492 kts | 17° |
| 2026-04-25 13:22 | 31.93634 | -81.41590 | 27924 ft | 494 kts | 17° |
| 2026-04-25 13:22 | 31.96923 | -81.40373 | 27937 ft | 496 kts | 17° |
| 2026-04-25 13:22 | 32.00223 | -81.39151 | 27949 ft | 498 kts | 17° |
| 2026-04-25 13:23 | 32.06856 | -81.36692 | 27972 ft | 502 kts | 17° |
| 2026-04-25 13:23 | 32.10190 | -81.35454 | 27984 ft | 503 kts | 17° |
| 2026-04-25 13:23 | 32.13538 | -81.34210 | 27993 ft | 505 kts | 17° |
| 2026-04-25 13:24 | 32.20252 | -81.31713 | 28014 ft | 508 kts | 17° |
| 2026-04-25 13:24 | 32.26962 | -81.29213 | 28031 ft | 510 kts | 17° |
| 2026-04-25 13:25 | 32.33747 | -81.26682 | 28047 ft | 512 kts | 17° |
| 2026-04-25 13:25 | 32.40560 | -81.24136 | 28062 ft | 514 kts | 17° |
| 2026-04-25 13:26 | 32.47257 | -81.21130 | 28070 ft | 516 kts | 27° |
| 2026-04-25 13:26 | 32.53338 | -81.16605 | 28082 ft | 518 kts | 38° |
| 2026-04-25 13:27 | 32.58850 | -81.11189 | 28097 ft | 519 kts | 40° |
| 2026-04-25 13:27 | 32.64400 | -81.05699 | 28108 ft | 520 kts | 39° |
| 2026-04-25 13:28 | 32.69989 | -81.00225 | 28120 ft | 521 kts | 39° |
| 2026-04-25 13:28 | 32.75511 | -80.94841 | 28132 ft | 522 kts | 39° |
| 2026-04-25 13:29 | 32.81095 | -80.89393 | 28140 ft | 523 kts | 39° |
| 2026-04-25 13:29 | 32.86728 | -80.83884 | 28153 ft | 525 kts | 39° |
| 2026-04-25 13:30 | 32.95209 | -80.75566 | 28245 ft | 527 kts | 39° |
| 2026-04-25 13:31 | 33.03682 | -80.67236 | 28477 ft | 526 kts | 39° |
| 2026-04-25 13:31 | 33.08369 | -80.62620 | 28598 ft | 526 kts | 39° |
| 2026-04-25 13:32 | 33.14004 | -80.57060 | 28747 ft | 525 kts | 39° |
| 2026-04-25 13:32 | 33.19627 | -80.51502 | 28893 ft | 525 kts | 39° |
| 2026-04-25 13:33 | 33.25254 | -80.45932 | 29043 ft | 525 kts | 39° |
| 2026-04-25 13:33 | 33.30877 | -80.40355 | 29189 ft | 525 kts | 39° |
| 2026-04-25 13:34 | 33.36456 | -80.34812 | 29336 ft | 525 kts | 40° |
| 2026-04-25 13:34 | 33.42073 | -80.29222 | 29485 ft | 525 kts | 40° |
| 2026-04-25 13:35 | 33.47688 | -80.23625 | 29632 ft | 525 kts | 40° |
| 2026-04-25 13:35 | 33.53296 | -80.18023 | 29781 ft | 525 kts | 40° |
| 2026-04-25 13:36 | 33.58902 | -80.12414 | 29930 ft | 525 kts | 40° |
| 2026-04-25 13:36 | 33.64524 | -80.06811 | 30081 ft | 525 kts | 38° |
| 2026-04-25 13:37 | 33.70813 | -80.02528 | 30228 ft | 524 kts | 24° |
| 2026-04-25 13:37 | 33.77432 | -79.98844 | 30382 ft | 524 kts | 25° |
| 2026-04-25 13:38 | 33.83975 | -79.94961 | 30533 ft | 525 kts | 27° |
| 2026-04-25 13:38 | 33.90487 | -79.90969 | 30684 ft | 525 kts | 27° |
| 2026-04-25 13:39 | 33.97003 | -79.86964 | 30834 ft | 526 kts | 27° |
| 2026-04-25 13:39 | 34.03522 | -79.82973 | 30969 ft | 526 kts | 27° |
| 2026-04-25 13:40 | 34.10009 | -79.78997 | 30999 ft | 527 kts | 27° |
| 2026-04-25 13:40 | 34.16538 | -79.74986 | 31003 ft | 526 kts | 27° |
| 2026-04-25 13:41 | 34.23053 | -79.70970 | 31002 ft | 525 kts | 27° |
| 2026-04-25 13:41 | 34.29557 | -79.66947 | 31001 ft | 525 kts | 27° |
| 2026-04-25 13:42 | 34.36057 | -79.62921 | 31003 ft | 525 kts | 27° |
| 2026-04-25 13:42 | 34.42513 | -79.58919 | 31000 ft | 524 kts | 27° |
| 2026-04-25 13:43 | 34.49002 | -79.54892 | 31001 ft | 524 kts | 27° |
| 2026-04-25 13:43 | 34.55493 | -79.50857 | 31001 ft | 524 kts | 27° |
| 2026-04-25 13:44 | 34.61723 | -79.46712 | 31001 ft | 524 kts | 29° |
| 2026-04-25 13:44 | 34.67763 | -79.42572 | 31001 ft | 524 kts | 29° |
| 2026-04-25 13:45 | 34.74138 | -79.38270 | 31002 ft | 524 kts | 29° |
| 2026-04-25 13:45 | 34.80461 | -79.33995 | 31001 ft | 524 kts | 29° |
| 2026-04-25 13:46 | 34.86827 | -79.29677 | 31001 ft | 524 kts | 29° |
| 2026-04-25 13:46 | 34.92837 | -79.24781 | 31010 ft | 520 kts | 40° |
| 2026-04-25 13:47 | 34.98249 | -79.18933 | 31002 ft | 521 kts | 43° |
| 2026-04-25 13:47 | 35.03569 | -79.12933 | 31001 ft | 521 kts | 43° |
| 2026-04-25 13:48 | 35.08886 | -79.06902 | 31000 ft | 522 kts | 43° |
| 2026-04-25 13:48 | 35.14202 | -79.00857 | 31002 ft | 522 kts | 43° |
| 2026-04-25 13:49 | 35.19487 | -78.94845 | 31002 ft | 523 kts | 43° |
| 2026-04-25 13:49 | 35.24809 | -78.88792 | 31011 ft | 523 kts | 43° |
| 2026-04-25 13:50 | 35.30135 | -78.82737 | 31026 ft | 523 kts | 43° |
| 2026-04-25 13:50 | 35.35478 | -78.76669 | 31039 ft | 523 kts | 43° |
| 2026-04-25 13:51 | 35.40812 | -78.70617 | 31189 ft | 520 kts | 43° |
| 2026-04-25 13:51 | 35.43459 | -78.67615 | 31357 ft | 517 kts | 43° |
| 2026-04-25 13:51 | 35.46094 | -78.64627 | 31523 ft | 514 kts | 43° |
| 2026-04-25 13:51 | 35.48713 | -78.61659 | 31688 ft | 511 kts | 43° |
| 2026-04-25 13:52 | 35.51321 | -78.58704 | 31824 ft | 510 kts | 43° |
| 2026-04-25 13:52 | 35.53889 | -78.55795 | 31942 ft | 508 kts | 43° |
| 2026-04-25 13:52 | 35.56483 | -78.52859 | 32062 ft | 506 kts | 43° |
| 2026-04-25 13:52 | 35.59069 | -78.49933 | 32182 ft | 505 kts | 43° |
| 2026-04-25 13:53 | 35.61653 | -78.47011 | 32224 ft | 506 kts | 43° |
| 2026-04-25 13:53 | 35.66930 | -78.41302 | 32219 ft | 504 kts | 33° |
| 2026-04-25 13:53 | 35.70060 | -78.39376 | 32224 ft | 504 kts | 18° |
| 2026-04-25 13:54 | 35.73474 | -78.38453 | 32244 ft | 505 kts | 7° |
| 2026-04-25 13:54 | 35.80491 | -78.37887 | 32269 ft | 506 kts | 2° |
| 2026-04-25 13:55 | 35.87492 | -78.36915 | 32283 ft | 507 kts | 9° |
| 2026-04-25 13:55 | 35.94198 | -78.35452 | 32299 ft | 510 kts | 10° |
| 2026-04-25 13:56 | 36.00844 | -78.33941 | 32315 ft | 511 kts | 10° |
| 2026-04-25 13:56 | 36.07852 | -78.32330 | 32326 ft | 513 kts | 10° |
| 2026-04-25 13:57 | 36.14907 | -78.30702 | 32011 ft | 521 kts | 10° |
| 2026-04-25 13:57 | 36.17278 | -78.30154 | 31764 ft | 526 kts | 10° |
| 2026-04-25 13:57 | 36.22086 | -78.29043 | 31270 ft | 525 kts | 10° |
| 2026-04-25 13:57 | 36.25697 | -78.28570 | 31000 ft | 521 kts | 358° |
| 2026-04-25 13:58 | 36.29282 | -78.28919 | 31060 ft | 514 kts | 355° |
| 2026-04-25 13:58 | 36.36366 | -78.28572 | 31020 ft | 514 kts | 8° |
| 2026-04-25 13:59 | 36.43406 | -78.26989 | 31012 ft | 515 kts | 10° |
| 2026-04-25 13:59 | 36.50361 | -78.24797 | 31001 ft | 513 kts | 13° |
| 2026-04-25 14:00 | 36.57209 | -78.22365 | 30985 ft | 514 kts | 20° |
| 2026-04-25 14:00 | 36.63969 | -78.19411 | 31004 ft | 515 kts | 17° |
| 2026-04-25 14:01 | 36.70767 | -78.16745 | 31002 ft | 516 kts | 18° |
| 2026-04-25 14:01 | 36.77590 | -78.13906 | 31002 ft | 518 kts | 18° |
| 2026-04-25 14:02 | 36.84444 | -78.11055 | 31004 ft | 519 kts | 18° |
| 2026-04-25 14:02 | 36.91296 | -78.08251 | 31004 ft | 520 kts | 18° |
| 2026-04-25 14:03 | 36.98180 | -78.05442 | 31001 ft | 521 kts | 18° |
| 2026-04-25 14:03 | 37.05061 | -78.02614 | 31000 ft | 521 kts | 18° |
| 2026-04-25 14:04 | 37.11961 | -77.99759 | 31001 ft | 522 kts | 18° |
| 2026-04-25 14:04 | 37.18815 | -77.96927 | 31001 ft | 522 kts | 18° |
| 2026-04-25 14:05 | 37.25717 | -77.94087 | 31002 ft | 523 kts | 18° |
| 2026-04-25 14:05 | 37.32630 | -77.91229 | 30993 ft | 523 kts | 18° |
| 2026-04-25 14:06 | 37.39529 | -77.88366 | 30999 ft | 522 kts | 18° |
| 2026-04-25 14:06 | 37.46417 | -77.85501 | 31002 ft | 521 kts | 18° |
| 2026-04-25 14:07 | 37.53303 | -77.82604 | 31005 ft | 521 kts | 20° |
| 2026-04-25 14:07 | 37.59958 | -77.79204 | 31004 ft | 520 kts | 22° |
| 2026-04-25 14:08 | 37.66631 | -77.75637 | 31001 ft | 520 kts | 22° |
| 2026-04-25 14:08 | 37.72761 | -77.72378 | 31002 ft | 520 kts | 22° |
| 2026-04-25 14:09 | 37.79434 | -77.68855 | 31001 ft | 520 kts | 22° |
| 2026-04-25 14:09 | 37.86119 | -77.65330 | 31002 ft | 520 kts | 22° |
| 2026-04-25 14:10 | 37.92793 | -77.61801 | 31001 ft | 520 kts | 22° |
| 2026-04-25 14:10 | 37.99466 | -77.58265 | 31003 ft | 520 kts | 22° |
| 2026-04-25 14:11 | 38.06094 | -77.54744 | 31001 ft | 520 kts | 22° |
| 2026-04-25 14:11 | 38.12769 | -77.51191 | 31003 ft | 520 kts | 22° |
| 2026-04-25 14:12 | 38.19443 | -77.47632 | 30999 ft | 520 kts | 22° |
| 2026-04-25 14:12 | 38.26115 | -77.44067 | 31002 ft | 520 kts | 22° |
| 2026-04-25 14:13 | 38.32789 | -77.40493 | 31001 ft | 520 kts | 22° |
| 2026-04-25 14:13 | 38.39257 | -77.36391 | 30996 ft | 520 kts | 34° |
| 2026-04-25 14:14 | 38.44765 | -77.30453 | 30999 ft | 520 kts | 46° |
| 2026-04-25 14:14 | 38.49575 | -77.23557 | 31006 ft | 519 kts | 49° |
| 2026-04-25 14:15 | 38.54274 | -77.16633 | 31001 ft | 520 kts | 49° |
| 2026-04-25 14:15 | 38.59039 | -77.09688 | 31003 ft | 520 kts | 49° |
| 2026-04-25 14:16 | 38.63700 | -77.02933 | 31001 ft | 520 kts | 49° |
| 2026-04-25 14:16 | 38.68485 | -76.95987 | 31002 ft | 520 kts | 49° |
| 2026-04-25 14:17 | 38.73262 | -76.89029 | 31001 ft | 520 kts | 49° |
| 2026-04-25 14:17 | 38.78035 | -76.82062 | 31001 ft | 520 kts | 49° |
| 2026-04-25 14:18 | 38.82577 | -76.75413 | 30997 ft | 520 kts | 49° |
| 2026-04-25 14:18 | 38.87169 | -76.68676 | 30995 ft | 520 kts | 49° |
| 2026-04-25 14:18 | 38.89499 | -76.65249 | 31118 ft | 499 kts | 47° |
| 2026-04-25 14:19 | 38.91615 | -76.62213 | 30824 ft | 483 kts | 46° |
| 2026-04-25 14:19 | 38.96126 | -76.55901 | 30895 ft | 482 kts | 50° |
| 2026-04-25 14:20 | 39.00428 | -76.49290 | 31004 ft | 484 kts | 50° |
| 2026-04-25 14:20 | 39.04802 | -76.42662 | 31008 ft | 487 kts | 49° |
| 2026-04-25 14:21 | 39.09255 | -76.36055 | 31010 ft | 490 kts | 49° |
| 2026-04-25 14:21 | 39.13750 | -76.29414 | 31008 ft | 493 kts | 49° |
| 2026-04-25 14:22 | 39.18244 | -76.22697 | 31008 ft | 496 kts | 49° |
| 2026-04-25 14:22 | 39.22765 | -76.15941 | 31005 ft | 499 kts | 49° |
| 2026-04-25 14:23 | 39.27282 | -76.09193 | 31004 ft | 501 kts | 49° |
| 2026-04-25 14:23 | 39.31848 | -76.02377 | 31003 ft | 503 kts | 49° |
| 2026-04-25 14:24 | 39.36431 | -75.95520 | 31003 ft | 505 kts | 49° |
| 2026-04-25 14:24 | 39.41027 | -75.88628 | 31003 ft | 507 kts | 49° |
| 2026-04-25 14:25 | 39.45463 | -75.81960 | 31003 ft | 508 kts | 49° |
| 2026-04-25 14:25 | 39.47746 | -75.78521 | 31021 ft | 491 kts | 49° |
| 2026-04-25 14:25 | 39.49911 | -75.75254 | 30817 ft | 468 kts | 49° |
| 2026-04-25 14:26 | 39.53876 | -75.69286 | 30700 ft | 445 kts | 49° |
| 2026-04-25 14:26 | 39.57915 | -75.63173 | 30756 ft | 455 kts | 49° |
| 2026-04-25 14:27 | 39.62049 | -75.56899 | 30750 ft | 459 kts | 49° |
| 2026-04-25 14:27 | 39.66035 | -75.50797 | 30746 ft | 459 kts | 51° |
| 2026-04-25 14:28 | 39.69723 | -75.44307 | 30909 ft | 463 kts | 53° |
| 2026-04-25 14:28 | 39.71415 | -75.41260 | 30880 ft | 445 kts | 53° |
| 2026-04-25 14:28 | 39.73223 | -75.38002 | 30819 ft | 449 kts | 53° |
| 2026-04-25 14:29 | 39.76910 | -75.31388 | 30757 ft | 459 kts | 53° |
| 2026-04-25 14:29 | 39.80609 | -75.24759 | 30732 ft | 437 kts | 53° |
| 2026-04-25 14:30 | 39.84144 | -75.18409 | 30754 ft | 435 kts | 53° |
| 2026-04-25 14:30 | 39.89503 | -75.08762 | 30754 ft | 441 kts | 53° |
| 2026-04-25 14:31 | 39.92964 | -75.02520 | 30854 ft | 444 kts | 53° |
| 2026-04-25 14:31 | 39.96627 | -74.95910 | 30975 ft | 460 kts | 57° |
| 2026-04-25 14:32 | 40.00303 | -74.88880 | 31141 ft | 478 kts | 59° |
| 2026-04-25 14:32 | 40.02147 | -74.85203 | 31143 ft | 490 kts | 59° |
| 2026-04-25 14:32 | 40.04031 | -74.81448 | 31165 ft | 500 kts | 59° |
| 2026-04-25 14:33 | 40.07931 | -74.73738 | 31142 ft | 517 kts | 59° |
| 2026-04-25 14:33 | 40.11933 | -74.65860 | 31132 ft | 523 kts | 59° |
| 2026-04-25 14:34 | 40.15946 | -74.57935 | 31129 ft | 523 kts | 59° |
| 2026-04-25 14:34 | 40.20217 | -74.50293 | 31127 ft | 526 kts | 51° |
| 2026-04-25 14:35 | 40.25489 | -74.43641 | 31129 ft | 529 kts | 40° |
| 2026-04-25 14:35 | 40.31240 | -74.37636 | 31129 ft | 529 kts | 40° |
| 2026-04-25 14:36 | 40.36932 | -74.31641 | 31129 ft | 529 kts | 40° |
| 2026-04-25 14:36 | 40.42624 | -74.25544 | 31133 ft | 528 kts | 40° |
| 2026-04-25 14:37 | 40.48312 | -74.19421 | 31128 ft | 528 kts | 40° |
| 2026-04-25 14:37 | 40.53748 | -74.13566 | 31201 ft | 511 kts | 39° |
| 2026-04-25 14:38 | 40.59038 | -74.07866 | 31163 ft | 517 kts | 41° |
| 2026-04-25 14:38 | 40.64689 | -74.01764 | 31135 ft | 531 kts | 40° |
| 2026-04-25 14:39 | 40.70412 | -73.95572 | 31134 ft | 533 kts | 41° |
| 2026-04-25 14:39 | 40.76141 | -73.89358 | 31130 ft | 533 kts | 41° |
| 2026-04-25 14:40 | 40.81814 | -73.83204 | 31129 ft | 532 kts | 39° |
| 2026-04-25 14:40 | 40.88033 | -73.77888 | 31128 ft | 532 kts | 28° |
| 2026-04-25 14:41 | 40.94816 | -73.74056 | 31134 ft | 530 kts | 19° |
| 2026-04-25 14:41 | 41.01768 | -73.70850 | 31132 ft | 529 kts | 19° |
| 2026-04-25 14:42 | 41.06369 | -73.68700 | 31129 ft | 529 kts | 19° |
| 2026-04-25 14:42 | 41.15592 | -73.64279 | 31130 ft | 529 kts | 20° |
| 2026-04-25 14:43 | 41.22516 | -73.60940 | 31129 ft | 530 kts | 20° |
| 2026-04-25 14:43 | 41.29553 | -73.58080 | 31130 ft | 529 kts | 12° |
| 2026-04-25 14:44 | 41.36843 | -73.56802 | 31134 ft | 529 kts | 4° |
| 2026-04-25 14:44 | 41.44170 | -73.55910 | 31133 ft | 529 kts | 4° |
| 2026-04-25 14:45 | 41.51248 | -73.54986 | 31128 ft | 530 kts | 5° |
| 2026-04-25 14:45 | 41.58589 | -73.54007 | 31130 ft | 531 kts | 5° |
| 2026-04-25 14:46 | 41.65892 | -73.53011 | 31135 ft | 531 kts | 5° |
| 2026-04-25 14:46 | 41.73238 | -73.51992 | 31128 ft | 531 kts | 5° |
| 2026-04-25 14:47 | 41.78163 | -73.51322 | 31131 ft | 531 kts | 5° |
| 2026-04-25 14:47 | 41.87957 | -73.49990 | 31130 ft | 531 kts | 5° |
| 2026-04-25 14:48 | 41.94992 | -73.49024 | 31128 ft | 531 kts | 5° |
| 2026-04-25 14:48 | 42.02341 | -73.48010 | 31127 ft | 524 kts | 7° |
| 2026-04-25 14:49 | 42.05812 | -73.47538 | 31190 ft | 484 kts | 8° |
| 2026-04-25 14:49 | 42.09099 | -73.47090 | 30969 ft | 466 kts | 8° |
| 2026-04-25 14:49 | 42.12273 | -73.46653 | 30861 ft | 454 kts | 8° |
| 2026-04-25 14:49 | 42.15391 | -73.46217 | 30841 ft | 460 kts | 8° |
| 2026-04-25 14:50 | 42.21828 | -73.45312 | 30760 ft | 468 kts | 8° |
| 2026-04-25 14:50 | 42.28304 | -73.44409 | 30753 ft | 468 kts | 8° |
| 2026-04-25 14:51 | 42.34775 | -73.43508 | 30749 ft | 467 kts | 8° |
| 2026-04-25 14:51 | 42.40149 | -73.42759 | 30744 ft | 467 kts | 8° |
| 2026-04-25 14:52 | 42.47659 | -73.41709 | 30749 ft | 466 kts | 8° |
| 2026-04-25 14:52 | 42.51968 | -73.41105 | 30749 ft | 466 kts | 8° |
| 2026-04-25 14:53 | 42.59458 | -73.40053 | 30745 ft | 465 kts | 8° |
| 2026-04-25 14:53 | 42.65895 | -73.39147 | 30748 ft | 465 kts | 8° |
| 2026-04-25 14:54 | 42.72341 | -73.38237 | 30753 ft | 466 kts | 8° |
| 2026-04-25 14:54 | 42.78564 | -73.37357 | 30742 ft | 467 kts | 6° |
| 2026-04-25 14:55 | 42.85154 | -73.36423 | 31000 ft | 484 kts | 5° |
| 2026-04-25 14:55 | 42.92000 | -73.35455 | 31129 ft | 504 kts | 5° |
| 2026-04-25 14:56 | 42.99053 | -73.34452 | 31148 ft | 522 kts | 5° |
| 2026-04-25 14:56 | 43.06359 | -73.33586 | 31137 ft | 530 kts | 3° |
| 2026-04-25 14:57 | 43.13729 | -73.32872 | 31135 ft | 532 kts | 3° |
| 2026-04-25 14:57 | 43.21129 | -73.32140 | 31131 ft | 533 kts | 3° |
| 2026-04-25 14:58 | 43.28533 | -73.31374 | 31128 ft | 534 kts | 3° |
| 2026-04-25 14:58 | 43.35931 | -73.30590 | 31133 ft | 534 kts | 3° |
| 2026-04-25 14:59 | 43.43328 | -73.29803 | 31127 ft | 533 kts | 3° |
| 2026-04-25 14:59 | 43.50662 | -73.29034 | 31131 ft | 532 kts | 3° |
| 2026-04-25 15:00 | 43.58037 | -73.28264 | 31127 ft | 530 kts | 3° |
| 2026-04-25 15:00 | 43.65369 | -73.27490 | 31132 ft | 529 kts | 3° |
| 2026-04-25 15:01 | 43.72704 | -73.26712 | 31131 ft | 528 kts | 3° |
| 2026-04-25 15:01 | 43.80031 | -73.25933 | 31127 ft | 528 kts | 3° |
| 2026-04-25 15:02 | 43.87361 | -73.25152 | 31133 ft | 528 kts | 3° |
| 2026-04-25 15:02 | 43.94688 | -73.24370 | 31130 ft | 528 kts | 3° |
| 2026-04-25 15:03 | 44.01712 | -73.22135 | 31125 ft | 525 kts | 29° |
| 2026-04-25 15:03 | 44.04693 | -73.19261 | 31141 ft | 523 kts | 44° |
| 2026-04-25 15:03 | 44.07091 | -73.15488 | 31132 ft | 517 kts | 58° |
| 2026-04-25 15:04 | 44.11085 | -73.07100 | 31144 ft | 525 kts | 59° |
| 2026-04-25 15:04 | 44.15177 | -72.98627 | 31140 ft | 529 kts | 58° |
| 2026-04-25 15:05 | 44.19346 | -72.90151 | 31133 ft | 531 kts | 58° |
| 2026-04-25 15:06 | 44.25605 | -72.77477 | 31136 ft | 531 kts | 58° |
| 2026-04-25 15:06 | 44.29765 | -72.69015 | 31125 ft | 526 kts | 58° |
| 2026-04-25 15:07 | 44.33876 | -72.60617 | 31125 ft | 523 kts | 58° |
| 2026-04-25 15:07 | 44.37970 | -72.52225 | 31129 ft | 522 kts | 58° |
| 2026-04-25 15:08 | 44.42059 | -72.43820 | 31135 ft | 523 kts | 58° |
| 2026-04-25 15:08 | 44.46140 | -72.35411 | 31132 ft | 524 kts | 58° |
| 2026-04-25 15:09 | 44.50229 | -72.26956 | 31133 ft | 524 kts | 58° |
| 2026-04-25 15:09 | 44.56338 | -72.14283 | 31135 ft | 526 kts | 58° |
| 2026-04-25 15:10 | 44.60431 | -72.05759 | 31134 ft | 527 kts | 58° |
| 2026-04-25 15:11 | 44.66559 | -71.92955 | 31130 ft | 527 kts | 58° |
| 2026-04-25 15:11 | 44.70639 | -71.84395 | 31129 ft | 527 kts | 58° |
| 2026-04-25 15:12 | 44.76737 | -71.71556 | 31135 ft | 526 kts | 59° |
| 2026-04-25 15:12 | 44.80114 | -71.64421 | 31135 ft | 526 kts | 59° |
| 2026-04-25 15:13 | 44.86688 | -71.50480 | 31127 ft | 525 kts | 59° |
| 2026-04-25 15:14 | 44.90723 | -71.41885 | 31134 ft | 525 kts | 59° |
| 2026-04-25 15:14 | 44.94750 | -71.33288 | 31131 ft | 526 kts | 59° |
| 2026-04-25 15:15 | 44.98786 | -71.24633 | 31316 ft | 529 kts | 59° |
| 2026-04-25 15:15 | 45.00811 | -71.20284 | 31645 ft | 528 kts | 59° |
| 2026-04-25 15:15 | 45.02793 | -71.16031 | 32131 ft | 524 kts | 59° |
| 2026-04-25 15:15 | 45.04784 | -71.11748 | 32501 ft | 522 kts | 59° |
| 2026-04-25 15:16 | 45.06783 | -71.07441 | 32785 ft | 523 kts | 59° |
| 2026-04-25 15:16 | 45.08768 | -71.03152 | 33030 ft | 523 kts | 59° |
| 2026-04-25 15:16 | 45.12295 | -70.94128 | 33132 ft | 522 kts | 69° |
| 2026-04-25 15:17 | 45.16612 | -70.80053 | 33120 ft | 518 kts | 70° |
| 2026-04-25 15:18 | 45.19488 | -70.70685 | 33133 ft | 518 kts | 69° |
| 2026-04-25 15:18 | 45.23823 | -70.56706 | 33126 ft | 518 kts | 69° |
| 2026-04-25 15:19 | 45.26229 | -70.48936 | 33132 ft | 517 kts | 69° |
| 2026-04-25 15:19 | 45.29549 | -70.38157 | 33241 ft | 531 kts | 67° |
| 2026-04-25 15:20 | 45.32473 | -70.28622 | 33347 ft | 546 kts | 67° |
| 2026-04-25 15:20 | 45.35540 | -70.18591 | 33353 ft | 560 kts | 67° |
| 2026-04-25 15:21 | 45.38625 | -70.08458 | 33344 ft | 565 kts | 67° |
| 2026-04-25 15:21 | 45.41744 | -69.98174 | 33340 ft | 567 kts | 68° |
| 2026-04-25 15:22 | 45.44861 | -69.87849 | 33346 ft | 568 kts | 68° |
| 2026-04-25 15:22 | 45.46415 | -69.82687 | 33515 ft | 568 kts | 68° |
| 2026-04-25 15:22 | 45.47968 | -69.77519 | 33843 ft | 566 kts | 68° |
| 2026-04-25 15:23 | 45.49510 | -69.72372 | 34165 ft | 564 kts | 68° |
| 2026-04-25 15:23 | 45.51048 | -69.67225 | 34467 ft | 562 kts | 68° |
| 2026-04-25 15:23 | 45.52572 | -69.62113 | 34885 ft | 558 kts | 68° |
| 2026-04-25 15:23 | 45.54066 | -69.57102 | 35210 ft | 557 kts | 68° |
| 2026-04-25 15:24 | 45.57106 | -69.46868 | 35345 ft | 561 kts | 68° |
| 2026-04-25 15:24 | 45.59622 | -69.38332 | 35336 ft | 562 kts | 68° |
| 2026-04-25 15:25 | 45.63128 | -69.26442 | 35337 ft | 560 kts | 68° |
| 2026-04-25 15:25 | 45.66148 | -69.16187 | 35336 ft | 559 kts | 68° |
| 2026-04-25 15:26 | 45.69133 | -69.05955 | 35340 ft | 557 kts | 68° |
| 2026-04-25 15:26 | 45.72075 | -68.95800 | 35341 ft | 556 kts | 68° |
| 2026-04-25 15:27 | 45.75044 | -68.85598 | 35341 ft | 555 kts | 68° |
| 2026-04-25 15:28 | 45.79470 | -68.70283 | 35342 ft | 554 kts | 68° |
| 2026-04-25 15:28 | 45.82398 | -68.60072 | 35337 ft | 554 kts | 69° |
| 2026-04-25 15:29 | 45.85292 | -68.49936 | 35342 ft | 554 kts | 69° |
| 2026-04-25 15:29 | 45.88205 | -68.39696 | 35338 ft | 554 kts | 69° |
| 2026-04-25 15:30 | 45.90621 | -68.31169 | 35340 ft | 555 kts | 69° |
| 2026-04-25 15:30 | 45.94012 | -68.19152 | 35343 ft | 556 kts | 69° |
| 2026-04-25 15:31 | 45.96906 | -68.08850 | 35342 ft | 556 kts | 69° |
| 2026-04-25 15:31 | 45.99777 | -67.98583 | 35338 ft | 557 kts | 69° |
| 2026-04-25 15:32 | 46.02677 | -67.88251 | 35339 ft | 557 kts | 67° |
| 2026-04-25 15:32 | 46.06329 | -67.78421 | 35332 ft | 558 kts | 56° |
| 2026-04-25 15:33 | 46.13152 | -67.64866 | 35340 ft | 557 kts | 53° |
| 2026-04-25 15:33 | 46.17716 | -67.55837 | 35342 ft | 557 kts | 53° |
| 2026-04-25 15:34 | 46.22193 | -67.46718 | 35339 ft | 557 kts | 54° |
| 2026-04-25 15:34 | 46.25904 | -67.39131 | 35341 ft | 557 kts | 54° |
| 2026-04-25 15:35 | 46.33373 | -67.23870 | 35341 ft | 557 kts | 54° |
| 2026-04-25 15:36 | 46.40049 | -67.10177 | 35343 ft | 557 kts | 54° |
| 2026-04-25 15:36 | 46.44508 | -67.00988 | 35339 ft | 558 kts | 54° |
| 2026-04-25 15:37 | 46.48961 | -66.91778 | 35340 ft | 558 kts | 54° |
| 2026-04-25 15:37 | 46.53413 | -66.82542 | 35338 ft | 558 kts | 54° |
| 2026-04-25 15:38 | 46.57855 | -66.73293 | 35343 ft | 558 kts | 54° |
| 2026-04-25 15:38 | 46.62292 | -66.64028 | 35335 ft | 558 kts | 54° |
| 2026-04-25 15:39 | 46.66688 | -66.54817 | 35337 ft | 558 kts | 54° |
| 2026-04-25 15:39 | 46.71105 | -66.45529 | 35341 ft | 558 kts | 54° |
| 2026-04-25 15:40 | 46.74055 | -66.39311 | 35336 ft | 558 kts | 54° |
| 2026-04-25 15:40 | 46.79918 | -66.26908 | 35340 ft | 557 kts | 55° |
| 2026-04-25 15:41 | 46.84060 | -66.18105 | 35341 ft | 557 kts | 55° |
| 2026-04-25 15:41 | 46.88446 | -66.08752 | 35338 ft | 557 kts | 55° |
| 2026-04-25 15:42 | 46.92815 | -65.99423 | 35341 ft | 556 kts | 55° |
| 2026-04-25 15:42 | 46.97152 | -65.90129 | 35337 ft | 556 kts | 55° |
| 2026-04-25 15:43 | 47.01504 | -65.80763 | 35343 ft | 556 kts | 55° |
| 2026-04-25 15:43 | 47.05841 | -65.71397 | 35335 ft | 556 kts | 55° |
| 2026-04-25 15:44 | 47.10183 | -65.61990 | 35339 ft | 556 kts | 55° |
| 2026-04-25 15:44 | 47.14508 | -65.52587 | 35338 ft | 556 kts | 55° |
| 2026-04-25 15:45 | 47.18829 | -65.43161 | 35339 ft | 556 kts | 56° |
| 2026-04-25 15:45 | 47.21683 | -65.36916 | 35343 ft | 556 kts | 56° |
| 2026-04-25 15:46 | 47.27416 | -65.24333 | 35340 ft | 556 kts | 56° |
| 2026-04-25 15:46 | 47.31713 | -65.14860 | 35340 ft | 556 kts | 56° |
| 2026-04-25 15:47 | 47.35993 | -65.05375 | 35339 ft | 556 kts | 56° |
| 2026-04-25 15:47 | 47.40267 | -64.95868 | 35339 ft | 556 kts | 56° |
| 2026-04-25 15:48 | 47.44516 | -64.86429 | 35339 ft | 556 kts | 56° |
| 2026-04-25 15:48 | 47.48785 | -64.76898 | 35340 ft | 556 kts | 56° |
| 2026-04-25 15:49 | 47.53028 | -64.67338 | 35338 ft | 556 kts | 56° |
| 2026-04-25 15:49 | 47.57252 | -64.57763 | 35340 ft | 556 kts | 56° |
| 2026-04-25 15:50 | 47.61479 | -64.48188 | 35340 ft | 556 kts | 56° |
| 2026-04-25 15:50 | 47.65716 | -64.38603 | 35340 ft | 556 kts | 56° |
| 2026-04-25 15:51 | 47.68517 | -64.32249 | 35339 ft | 556 kts | 56° |
| 2026-04-25 15:51 | 47.74113 | -64.19437 | 35340 ft | 556 kts | 57° |
| 2026-04-25 15:52 | 47.78298 | -64.09784 | 35339 ft | 556 kts | 57° |
| 2026-04-25 15:52 | 47.82492 | -64.00126 | 35341 ft | 556 kts | 56° |
| 2026-04-25 15:53 | 47.86716 | -63.90579 | 35339 ft | 556 kts | 56° |
| 2026-04-25 15:53 | 47.90951 | -63.80939 | 35405 ft | 559 kts | 57° |
| 2026-04-25 15:54 | 47.93045 | -63.76050 | 35654 ft | 559 kts | 57° |
| 2026-04-25 15:54 | 47.95117 | -63.71157 | 35966 ft | 557 kts | 57° |
| 2026-04-25 15:54 | 47.97192 | -63.66294 | 36315 ft | 555 kts | 57° |
| 2026-04-25 15:54 | 47.99271 | -63.61443 | 36608 ft | 554 kts | 57° |
| 2026-04-25 15:55 | 48.00645 | -63.58241 | 36787 ft | 553 kts | 57° |
| 2026-04-25 15:55 | 48.03421 | -63.51763 | 37103 ft | 554 kts | 57° |
| 2026-04-25 15:55 | 48.05493 | -63.46915 | 37252 ft | 555 kts | 57° |
| 2026-04-25 15:55 | 48.07576 | -63.42029 | 37308 ft | 558 kts | 57° |
| 2026-04-25 15:56 | 48.11742 | -63.32217 | 37339 ft | 558 kts | 57° |
| 2026-04-25 15:56 | 48.15839 | -63.22525 | 37334 ft | 552 kts | 57° |
| 2026-04-25 15:57 | 48.19932 | -63.12808 | 37340 ft | 551 kts | 57° |
| 2026-04-25 15:57 | 48.24011 | -63.03092 | 37340 ft | 550 kts | 57° |
| 2026-04-25 15:58 | 48.28078 | -62.93371 | 37343 ft | 550 kts | 58° |
| 2026-04-25 15:58 | 48.32143 | -62.83617 | 37341 ft | 551 kts | 58° |
| 2026-04-25 15:59 | 48.36207 | -62.73831 | 37341 ft | 553 kts | 58° |
| 2026-04-25 15:59 | 48.40274 | -62.64003 | 37341 ft | 554 kts | 58° |
| 2026-04-25 16:00 | 48.42966 | -62.57477 | 37340 ft | 554 kts | 58° |
| 2026-04-25 16:00 | 48.48376 | -62.44316 | 37341 ft | 555 kts | 58° |
| 2026-04-25 16:01 | 48.52432 | -62.34405 | 37339 ft | 555 kts | 58° |
| 2026-04-25 16:01 | 48.56479 | -62.24481 | 37339 ft | 555 kts | 58° |
| 2026-04-25 16:02 | 48.60513 | -62.14549 | 37339 ft | 555 kts | 58° |
| 2026-04-25 16:02 | 48.64515 | -62.04661 | 37338 ft | 555 kts | 58° |
| 2026-04-25 16:03 | 48.68532 | -61.94698 | 37340 ft | 554 kts | 58° |
| 2026-04-25 16:03 | 48.72534 | -61.84735 | 37340 ft | 554 kts | 58° |
| 2026-04-25 16:04 | 48.76523 | -61.74744 | 37339 ft | 554 kts | 59° |
| 2026-04-25 16:04 | 48.80476 | -61.64825 | 37341 ft | 553 kts | 59° |
| 2026-04-25 16:05 | 48.84455 | -61.54827 | 37339 ft | 553 kts | 59° |
| 2026-04-25 16:06 | 48.90384 | -61.39781 | 37340 ft | 553 kts | 59° |
| 2026-04-25 16:06 | 48.94314 | -61.29719 | 37339 ft | 554 kts | 59° |
| 2026-04-25 16:07 | 48.98252 | -61.19639 | 37340 ft | 554 kts | 59° |
| 2026-04-25 16:07 | 49.02163 | -61.09636 | 37340 ft | 554 kts | 59° |
| 2026-04-25 16:08 | 49.06092 | -60.99540 | 37339 ft | 554 kts | 59° |
| 2026-04-25 16:08 | 49.09998 | -60.89412 | 37340 ft | 554 kts | 59° |
| 2026-04-25 16:09 | 49.13890 | -60.79259 | 37339 ft | 554 kts | 59° |
| 2026-04-25 16:09 | 49.17757 | -60.69171 | 37340 ft | 554 kts | 59° |
| 2026-04-25 16:10 | 49.21656 | -60.59003 | 37340 ft | 554 kts | 59° |
| 2026-04-25 16:10 | 49.25583 | -60.48857 | 37340 ft | 554 kts | 59° |
| 2026-04-25 16:11 | 49.29519 | -60.38709 | 37339 ft | 554 kts | 59° |
| 2026-04-25 16:11 | 49.33367 | -60.28499 | 37341 ft | 554 kts | 60° |
| 2026-04-25 16:12 | 49.37220 | -60.18249 | 37340 ft | 554 kts | 60° |
| 2026-04-25 16:12 | 49.41080 | -60.08010 | 37340 ft | 554 kts | 60° |
| 2026-04-25 16:13 | 49.44897 | -59.97822 | 37339 ft | 554 kts | 60° |
| 2026-04-25 16:13 | 49.48730 | -59.87536 | 37340 ft | 554 kts | 60° |
| 2026-04-25 16:14 | 49.52548 | -59.77243 | 37339 ft | 554 kts | 60° |
| 2026-04-25 16:14 | 49.56348 | -59.66924 | 37347 ft | 555 kts | 60° |
| 2026-04-25 16:14 | 49.58248 | -59.61745 | 37478 ft | 557 kts | 60° |
| 2026-04-25 16:15 | 49.60151 | -59.56545 | 37704 ft | 556 kts | 60° |
| 2026-04-25 16:15 | 49.62021 | -59.51434 | 37958 ft | 555 kts | 60° |
| 2026-04-25 16:15 | 49.63913 | -59.46259 | 38207 ft | 554 kts | 60° |
| 2026-04-25 16:15 | 49.65805 | -59.41083 | 38443 ft | 553 kts | 60° |
| 2026-04-25 16:16 | 49.67694 | -59.35908 | 38624 ft | 553 kts | 60° |
| 2026-04-25 16:16 | 49.69582 | -59.30723 | 38808 ft | 554 kts | 60° |
| 2026-04-25 16:16 | 49.71465 | -59.25535 | 38982 ft | 554 kts | 61° |
| 2026-04-25 16:16 | 49.73343 | -59.20342 | 39174 ft | 554 kts | 61° |
| 2026-04-25 16:17 | 49.75217 | -59.15143 | 39256 ft | 555 kts | 61° |
| 2026-04-25 16:17 | 49.78947 | -59.04760 | 39327 ft | 556 kts | 61° |
| 2026-04-25 16:18 | 49.82739 | -58.94344 | 39337 ft | 554 kts | 60° |
| 2026-04-25 16:18 | 49.86456 | -58.84098 | 39336 ft | 552 kts | 61° |
| 2026-04-25 16:19 | 49.90176 | -58.73709 | 39339 ft | 550 kts | 61° |
| 2026-04-25 16:19 | 49.93843 | -58.63380 | 39342 ft | 550 kts | 61° |
| 2026-04-25 16:20 | 49.99361 | -58.47758 | 39340 ft | 551 kts | 61° |
| 2026-04-25 16:21 | 50.04255 | -58.33835 | 39344 ft | 552 kts | 62° |
| 2026-04-25 16:21 | 50.07928 | -58.23334 | 39344 ft | 553 kts | 62° |
| 2026-04-25 16:22 | 50.11592 | -58.12782 | 39341 ft | 554 kts | 62° |
| 2026-04-25 16:22 | 50.15241 | -58.02204 | 39343 ft | 555 kts | 62° |
| 2026-04-25 16:23 | 50.18866 | -57.91664 | 39337 ft | 555 kts | 62° |
| 2026-04-25 16:23 | 50.22518 | -57.81039 | 39338 ft | 555 kts | 62° |
| 2026-04-25 16:24 | 50.26160 | -57.70403 | 39340 ft | 555 kts | 62° |
| 2026-04-25 16:24 | 50.29784 | -57.59749 | 39333 ft | 555 kts | 62° |
| 2026-04-25 16:25 | 50.33432 | -57.49111 | 39338 ft | 555 kts | 62° |
| 2026-04-25 16:25 | 50.37067 | -57.38468 | 39343 ft | 555 kts | 62° |
| 2026-04-25 16:26 | 50.40651 | -57.27858 | 39333 ft | 555 kts | 62° |
| 2026-04-25 16:26 | 50.44241 | -57.17150 | 39346 ft | 554 kts | 63° |
| 2026-04-25 16:27 | 50.47819 | -57.06431 | 39341 ft | 554 kts | 63° |
| 2026-04-25 16:27 | 50.51393 | -56.95684 | 39334 ft | 555 kts | 63° |
| 2026-04-25 16:28 | 50.54956 | -56.84928 | 39334 ft | 555 kts | 63° |
| 2026-04-25 16:28 | 50.58494 | -56.74202 | 39346 ft | 556 kts | 63° |
| 2026-04-25 16:29 | 50.62046 | -56.63387 | 39342 ft | 557 kts | 63° |
| 2026-04-25 16:29 | 50.65592 | -56.52543 | 39338 ft | 557 kts | 63° |
| 2026-04-25 16:30 | 50.69129 | -56.41680 | 39342 ft | 557 kts | 63° |
| 2026-04-25 16:30 | 50.72654 | -56.30805 | 39337 ft | 557 kts | 63° |
| 2026-04-25 16:31 | 50.76170 | -56.19908 | 39344 ft | 557 kts | 63° |
| 2026-04-25 16:31 | 50.79675 | -56.09002 | 39335 ft | 556 kts | 63° |
| 2026-04-25 16:32 | 50.83167 | -55.98086 | 39329 ft | 556 kts | 63° |
| 2026-04-25 16:32 | 50.86638 | -55.87183 | 39342 ft | 554 kts | 64° |
| 2026-04-25 16:33 | 50.90066 | -55.76336 | 39335 ft | 554 kts | 64° |
| 2026-04-25 16:33 | 50.93492 | -55.65421 | 39342 ft | 553 kts | 64° |
| 2026-04-25 16:34 | 50.96843 | -55.54713 | 39335 ft | 553 kts | 64° |
| 2026-04-25 16:34 | 51.00262 | -55.43775 | 39338 ft | 553 kts | 64° |
| 2026-04-25 16:35 | 51.03669 | -55.32827 | 39343 ft | 553 kts | 64° |
| 2026-04-25 16:35 | 51.07037 | -55.21929 | 39342 ft | 553 kts | 64° |
| 2026-04-25 16:36 | 51.10412 | -55.10944 | 39337 ft | 553 kts | 64° |
| 2026-04-25 16:36 | 51.13784 | -54.99941 | 39340 ft | 553 kts | 64° |
| 2026-04-25 16:37 | 51.17152 | -54.88927 | 39337 ft | 553 kts | 64° |
| 2026-04-25 16:37 | 51.20490 | -54.77952 | 39337 ft | 553 kts | 65° |
| 2026-04-25 16:38 | 51.23832 | -54.66894 | 39336 ft | 554 kts | 65° |
| 2026-04-25 16:38 | 51.27168 | -54.55813 | 39344 ft | 554 kts | 65° |
| 2026-04-25 16:39 | 51.29935 | -54.46602 | 39334 ft | 554 kts | 65° |
| 2026-04-25 16:39 | 51.33824 | -54.33620 | 39334 ft | 554 kts | 65° |
| 2026-04-25 16:40 | 51.37139 | -54.22492 | 39341 ft | 554 kts | 65° |
| 2026-04-25 16:40 | 51.40426 | -54.11439 | 39338 ft | 554 kts | 65° |
| 2026-04-25 16:41 | 51.43755 | -54.00301 | 39343 ft | 554 kts | 65° |
| 2026-04-25 16:41 | 51.48400 | -53.83357 | 39335 ft | 553 kts | 74° |
| 2026-04-25 16:42 | 51.50365 | -53.71494 | 39346 ft | 551 kts | 78° |
| 2026-04-25 16:42 | 51.52087 | -53.59574 | 39338 ft | 551 kts | 79° |
| 2026-04-25 16:43 | 51.53735 | -53.47551 | 39336 ft | 551 kts | 79° |
| 2026-04-25 16:43 | 51.55482 | -53.35561 | 39343 ft | 552 kts | 78° |
| 2026-04-25 16:44 | 51.57344 | -53.23627 | 39343 ft | 552 kts | 78° |
| 2026-04-25 16:44 | 51.59166 | -53.11633 | 39338 ft | 552 kts | 79° |
| 2026-04-25 16:45 | 51.60828 | -52.99602 | 39343 ft | 551 kts | 80° |
| 2026-04-25 16:45 | 51.62428 | -52.87603 | 39337 ft | 551 kts | 79° |
| 2026-04-25 16:46 | 51.64136 | -52.75572 | 39336 ft | 552 kts | 78° |
| 2026-04-25 16:46 | 51.65634 | -52.65561 | 39343 ft | 552 kts | 78° |
| 2026-04-25 16:47 | 51.67663 | -52.51533 | 39343 ft | 551 kts | 79° |
| 2026-04-25 16:47 | 51.69251 | -52.39513 | 39343 ft | 551 kts | 80° |
| 2026-04-25 16:48 | 51.70822 | -52.27417 | 39335 ft | 551 kts | 80° |
| 2026-04-25 16:48 | 51.72490 | -52.15354 | 39343 ft | 551 kts | 79° |
| 2026-04-25 16:49 | 51.74212 | -52.03295 | 39340 ft | 551 kts | 79° |
| 2026-04-25 16:49 | 51.75852 | -51.91210 | 39338 ft | 551 kts | 80° |
| 2026-04-25 16:50 | 51.77375 | -51.79166 | 39334 ft | 551 kts | 81° |
| 2026-04-25 16:50 | 51.78915 | -51.67047 | 39339 ft | 551 kts | 80° |
| 2026-04-25 16:51 | 51.80541 | -51.54946 | 39338 ft | 551 kts | 79° |
| 2026-04-25 16:51 | 51.81907 | -51.44892 | 39334 ft | 551 kts | 80° |
| 2026-04-25 16:52 | 51.83718 | -51.30799 | 39334 ft | 551 kts | 81° |
| 2026-04-25 16:52 | 51.85201 | -51.18637 | 39343 ft | 551 kts | 81° |
| 2026-04-25 16:53 | 51.87506 | -51.00419 | 39342 ft | 551 kts | 80° |
| 2026-04-25 16:54 | 51.89079 | -50.88286 | 39340 ft | 551 kts | 81° |
| 2026-04-25 16:54 | 51.90584 | -50.76125 | 39335 ft | 551 kts | 81° |
| 2026-04-25 16:55 | 51.92028 | -50.64030 | 39337 ft | 551 kts | 81° |
| 2026-04-25 16:55 | 51.93517 | -50.51839 | 39343 ft | 551 kts | 81° |
| 2026-04-25 16:56 | 51.95041 | -50.39672 | 39339 ft | 551 kts | 81° |
| 2026-04-25 16:56 | 51.96536 | -50.27480 | 39335 ft | 551 kts | 81° |
| 2026-04-25 16:57 | 51.98007 | -50.15371 | 39340 ft | 551 kts | 81° |